x

Folly Island, Sc (fbis1) Weather Station

4:00pm - Sun 19th Aug 2018 All times are EDT. -4 hours from GMT.

  • Wind
    16mph, 18mph gusts
  • Air Temp 83°f
  • Sea Pressure 1016.3mb
  • Folly Island, Sc
  • Folly Island, Sc

More Historic Weather Station data

Upgrade to MSW Pro to gain access to the past 30 days of data for over 8000 Wavebouys and Weather Stations around the globe.

Join

Comparision Forecast

View Surf forecast
   
Sun 08/19 4:00pm 16 18 mph 1016.3mb 83f
3:00pm 16 18 mph 1016.6mb 83f
2:00pm 15 17 mph 1017mb 84f
1:00pm 17 20 mph 1017.2mb 84f
12:00pm 13 14 mph 1017.5mb 84f
11:00am 8 14 mph 1017.8mb 83f
10:00am 8 11 mph 1017.6mb 82f
9:00am 7 10 mph 1017.6mb 81f
8:00am 5 6 mph 1017mb 80f
6:00am 5 6 mph 1016mb 80f
5:00am 8 11 mph 1015.5mb 80f
4:00am 6 7 mph 1015.7mb 79f
3:00am 3 5 mph 1015.9mb 79f
2:00am 5 7 mph 1016.3mb 79f
1:00am 22 26 mph 1016.1mb 83f
12:00am 3 6 mph 1016.7mb 79f
Sat 08/18 11:00pm 3 5 mph 1017.5mb 77f
10:00pm 14 21 mph 1017.6mb 79f
9:00pm 17 21 mph 1016.8mb 83f
8:00pm 20 22 mph 1016.3mb 83f
7:00pm 18 23 mph 1015.8mb 84f
6:00pm 21 24 mph 1016.1mb 84f
5:00pm 18 22 mph 1016.4mb 84f
4:00pm 18 21 mph 1017.1mb 84f
3:00pm 18 21 mph 1017.7mb 84f
2:00pm 16 20 mph 1018.5mb 84f
1:00pm 14 16 mph 1019.2mb 83f
12:00pm 14 16 mph 1019.9mb 83f
11:00am 13 15 mph 1020.5mb 83f
10:00am 6 9 mph 1020.7mb 82f
9:00am 8 13 mph 1020.8mb 81f
8:00am 7 10 mph 1020.6mb 80f
7:00am 9 13 mph 1020.4mb 81f
6:00am 11 17 mph 1020mb 81f
5:00am 15 17 mph 1019.9mb 82f
4:00am 17 22 mph 1020mb 82f
3:00am 9 14 mph 1020.3mb 82f
2:00am 9 15 mph 1020.9mb 82f
1:00am 18 21 mph 1021.2mb 83f
12:00am 14 17 mph 1021.4mb 83f
Fri 08/17 11:00pm 17 20 mph 1021.6mb 83f
10:00pm 15 20 mph 1021.8mb 83f
9:00pm 20 24 mph 1021.1mb 83f
8:00pm 21 24 mph 1020.6mb 83f
7:00pm 15 17 mph 1020.4mb 83f
6:00pm 16 18 mph 1020.6mb 84f
5:00pm 16 17 mph 1020.4mb 84f
4:00pm 16 17 mph 1021.4mb 84f
3:00pm 15 18 mph 1021.8mb 84f
2:00pm 14 16 mph 1022.2mb 85f
1:00pm 11 14 mph 1022.8mb 85f
12:00pm 15 16 mph 1023mb 84f
11:00am 13 15 mph 1023.2mb 84f
10:00am 8 11 mph 1023.2mb 84f
9:00am 7 10 mph 1023.3mb 83f
8:00am 5 6 mph 1023.3mb 80f
7:00am 5 5 mph 1022.8mb 81f
6:00am 6 8 mph 1022mb 82f
5:00am 9 13 mph 1021.7mb 82f
4:00am 16 18 mph 1022mb 83f
3:00am 16 17 mph 1022.2mb 83f
2:00am 17 20 mph 1022.5mb 83f
1:00am 18 21 mph 1022.7mb 83f
12:00am 20 24 mph 1023.1mb 83f
Thu 08/16 11:00pm 18 22 mph 1023mb 83f
10:00pm 16 18 mph 1022.7mb 83f
9:00pm 15 18 mph 1022.1mb 83f
8:00pm 14 16 mph 1021.6mb 83f
7:00pm 13 15 mph 1021.4mb 83f
6:00pm 11 14 mph 1021.3mb 84f
5:00pm 10 13 mph 1021.6mb 84f
4:00pm 13 15 mph 1021.6mb 85f
3:00pm 14 16 mph 1022.2mb 85f
2:00pm 11 14 mph 1022.7mb 85f
1:00pm 13 14 mph 1022.8mb 85f
12:00pm 13 14 mph 1022.9mb 84f
11:00am 10 13 mph 1022.7mb 83f
10:00am 8 9 mph 1022.2mb 84f
9:00am 7 8 mph 1022mb 83f
8:00am 5 7 mph 1021.9mb 80f
7:00am 5 6 mph 1021.5mb 78f
6:00am 5 6 mph 1020.9mb 79f
5:00am 8 10 mph 1020.4mb 81f
4:00am 7 9 mph 1020.1mb 81f
3:00am 8 9 mph 1020.3mb 81f
2:00am 7 9 mph 1020.4mb 81f
1:00am 9 14 mph 1020.3mb 82f
12:00am 15 17 mph 1020.3mb 83f
Wed 08/15 11:00pm 15 18 mph 1020.1mb 83f
10:00pm 17 20 mph 1020.2mb 83f